Time;durP1;ratioP1;P1;durP2;ratioP2;P2;SDS_P1;SDS_P2;PMS_P1;PMS_P2;Temp;Humidity;BMP_temperature;BMP_pressure;BME280_temperature;BME280_humidity;BME280_pressure;Samples;Min_cycle;Max_cycle;Signal;HPM_P1;HPM_P2
2023/01/14 00:01:35;;;;;;;14.55;3.03;;;6.90;99.90;;;;;;4998590;28;20038;-51
2023/01/14 00:04:02;;;;;;;13.00;2.40;;;6.90;99.90;;;;;;5001454;28;20066;-51
2023/01/14 00:06:30;;;;;;;16.15;2.65;;;6.90;99.90;;;;;;5003933;28;20072;-53
2023/01/14 00:08:58;;;;;;;18.02;3.22;;;6.90;99.90;;;;;;5003914;28;20042;-52
2023/01/14 00:14:10;;;;;;;17.25;3.03;;;6.90;99.90;;;;;;5004295;28;20049;-55
2023/01/14 00:16:36;;;;;;;16.65;2.53;;;6.90;99.90;;;;;;5007101;28;20429;-54
2023/01/14 00:19:02;;;;;;;15.25;3.33;;;6.90;99.90;;;;;;5006659;28;20068;-53
2023/01/14 00:21:28;;;;;;;21.25;3.47;;;6.90;99.90;;;;;;5011881;28;20493;-53
2023/01/14 00:23:54;;;;;;;16.65;2.95;;;6.90;99.90;;;;;;5003813;28;20060;-55
2023/01/14 00:26:21;;;;;;;13.55;3.05;;;6.90;99.90;;;;;;5004465;28;20483;-54
2023/01/14 00:28:49;;;;;;;15.98;2.47;;;6.90;99.90;;;;;;5003027;28;20046;-52
2023/01/14 00:31:26;;;;;;;13.40;2.88;;;6.90;99.90;;;;;;4998420;28;20575;-52
2023/01/14 00:33:53;;;;;;;18.13;3.13;;;6.80;99.90;;;;;;4999469;28;20100;-53
2023/01/14 00:36:21;;;;;;;15.30;3.28;;;6.90;99.90;;;;;;4994733;28;20213;-56
2023/01/14 00:38:47;;;;;;;13.82;2.85;;;6.80;99.90;;;;;;4998651;28;20115;-52
2023/01/14 00:41:15;;;;;;;15.43;3.13;;;6.80;99.90;;;;;;4998545;28;20070;-55
2023/01/14 00:43:46;;;;;;;19.38;3.08;;;6.80;99.90;;;;;;5002123;28;20038;-52
2023/01/14 00:46:15;;;;;;;14.98;2.83;;;6.80;99.90;;;;;;4999445;28;20115;-52
2023/01/14 00:48:42;;;;;;;14.80;2.40;;;6.80;99.90;;;;;;4999740;28;20056;-51
2023/01/14 00:51:08;;;;;;;14.27;2.80;;;6.90;99.90;;;;;;5003144;28;20030;-52
2023/01/14 00:53:34;;;;;;;11.88;2.88;;;6.80;99.90;;;;;;4998015;28;20050;-54
2023/01/14 00:56:00;;;;;;;15.60;3.30;;;6.80;99.90;;;;;;4997953;28;20046;-53
2023/01/14 00:58:26;;;;;;;14.30;3.78;;;6.80;99.90;;;;;;4996735;28;20100;-52
2023/01/14 01:00:53;;;;;;;14.77;2.95;;;6.80;99.90;;;;;;4998788;28;20038;-55
2023/01/14 01:03:19;;;;;;;20.33;2.60;;;6.90;99.90;;;;;;4996196;28;20046;-56
2023/01/14 01:05:45;;;;;;;15.82;2.58;;;6.80;99.90;;;;;;4996857;28;20100;-55
2023/01/14 01:08:14;;;;;;;14.98;3.15;;;6.80;99.90;;;;;;4997320;28;20038;-54
2023/01/14 01:10:42;;;;;;;19.40;3.17;;;6.80;99.90;;;;;;4997169;28;20073;-56
2023/01/14 01:13:08;;;;;;;;;;;6.90;99.90;;;;;;4996800;28;21351;-56
2023/01/14 01:15:35;;;;;;;9.68;3.03;;;6.80;99.90;;;;;;4998835;28;19925;-56
2023/01/14 01:18:02;;;;;;;16.92;3.53;;;6.90;99.90;;;;;;4998258;28;20034;-54
2023/01/14 01:20:28;;;;;;;18.48;2.90;;;6.90;99.90;;;;;;4997904;28;20077;-54
2023/01/14 01:22:54;;;;;;;15.55;2.88;;;6.90;99.90;;;;;;5001383;28;20046;-54
2023/01/14 01:25:20;;;;;;;15.70;3.25;;;6.90;99.90;;;;;;5001905;28;20085;-55
2023/01/14 01:27:45;;;;;;;19.75;2.97;;;6.90;99.90;;;;;;4999912;28;20042;-55
2023/01/14 01:30:12;;;;;;;13.05;2.63;;;6.90;99.90;;;;;;5005030;28;20454;-53
2023/01/14 01:32:37;;;;;;;14.77;3.38;;;6.90;99.90;;;;;;5001612;28;20056;-56
2023/01/14 01:35:03;;;;;;;12.82;2.78;;;6.90;99.90;;;;;;5002058;28;20041;-53
2023/01/14 01:37:29;;;;;;;18.45;3.55;;;6.90;99.90;;;;;;5004381;28;20069;-53
2023/01/14 01:39:55;;;;;;;18.55;3.63;;;6.90;99.90;;;;;;5005305;28;20042;-56
2023/01/14 01:42:23;;;;;;;16.27;2.85;;;6.90;99.90;;;;;;5005037;28;20065;-56
2023/01/14 01:44:48;;;;;;;12.80;2.58;;;6.90;99.90;;;;;;5001278;28;20042;-55
2023/01/14 01:47:18;;;;;;;17.55;3.17;;;6.90;99.90;;;;;;5003716;28;20104;-53
2023/01/14 01:49:45;;;;;;;11.13;2.17;;;6.90;99.90;;;;;;5003695;28;20054;-53
2023/01/14 01:52:25;;;;;;;16.05;2.72;;;6.90;99.90;;;;;;5005647;28;20100;-54
2023/01/14 01:54:58;;;;;;;22.00;2.72;;;6.90;99.90;;;;;;5004181;28;20068;-55
2023/01/14 01:57:25;;;;;;;19.45;3.25;;;6.90;99.90;;;;;;5002106;28;20412;-55
2023/01/14 01:59:56;;;;;;;11.38;2.40;;;6.90;99.90;;;;;;5003063;28;20048;-56
2023/01/14 02:02:23;;;;;;;13.38;2.83;;;6.90;99.90;;;;;;5003614;28;20053;-51
2023/01/14 02:04:49;;;;;;;18.50;2.80;;;6.90;99.90;;;;;;5001199;28;20054;-54
2023/01/14 02:07:21;;;;;;;17.35;3.10;;;6.90;99.90;;;;;;5006810;28;20050;-52
2023/01/14 02:10:06;;;;;;;11.77;2.97;;;6.90;99.90;;;;;;5003923;28;20125;-56
2023/01/14 02:12:36;;;;;;;16.90;2.75;;;6.90;99.90;;;;;;5002140;28;20045;-55
2023/01/14 02:15:37;;;;;;;18.15;3.22;;;6.90;99.90;;;;;;5006127;28;20061;-55
2023/01/14 02:18:20;;;;;;;14.73;2.95;;;6.90;99.90;;;;;;5007490;28;20058;-52
2023/01/14 02:20:55;;;;;;;14.07;4.05;;;6.90;99.90;;;;;;5005892;28;20096;-55
2023/01/14 02:23:40;;;;;;;14.10;2.80;;;6.90;99.90;;;;;;5005451;28;20061;-53
2023/01/14 02:26:36;;;;;;;13.15;2.85;;;6.90;99.90;;;;;;5006608;28;20048;-56
2023/01/14 02:29:23;;;;;;;12.52;2.40;;;6.90;99.90;;;;;;5005166;28;20584;-53
2023/01/14 02:31:58;;;;;;;22.47;3.30;;;6.90;99.90;;;;;;4982795;28;20131;-51
2023/01/14 02:34:39;;;;;;;16.10;3.08;;;6.90;99.90;;;;;;4999955;28;20041;-52
2023/01/14 02:37:30;;;;;;;16.52;2.70;;;6.90;99.90;;;;;;4999625;28;20038;-55
2023/01/14 02:40:07;;;;;;;19.67;3.13;;;6.90;99.90;;;;;;5002796;28;20141;-51
2023/01/14 02:45:40;;;;;;;17.00;2.92;;;6.90;99.90;;;;;;4999916;28;20041;-51
2023/01/14 02:48:07;;;;;;;16.45;2.90;;;6.90;99.90;;;;;;5003579;28;20046;-51
2023/01/14 02:50:35;;;;;;;17.27;3.20;;;6.90;99.90;;;;;;5002673;28;20042;-54
2023/01/14 02:53:08;;;;;;;17.70;2.60;;;6.90;99.90;;;;;;5000765;28;20046;-52
2023/01/14 02:55:36;;;;;;;12.57;2.85;;;6.80;99.90;;;;;;5001602;28;20702;-54
2023/01/14 02:58:11;;;;;;;13.20;2.88;;;6.80;99.90;;;;;;5001428;28;20050;-51
2023/01/14 03:00:51;;;;;;;11.55;2.42;;;6.80;99.90;;;;;;4999727;28;20069;-55
2023/01/14 03:03:32;;;;;;;19.33;3.70;;;6.80;99.90;;;;;;4999347;28;20610;-52
2023/01/14 03:06:23;;;;;;;15.68;2.97;;;6.80;99.90;;;;;;5000586;28;20042;-52
2023/01/14 03:09:11;;;;;;;15.15;2.67;;;6.80;99.90;;;;;;4999170;28;20049;-52
2023/01/14 03:11:55;;;;;;;13.18;2.65;;;6.80;99.90;;;;;;4999407;28;20054;-56
2023/01/14 03:14:33;;;;;;;13.38;2.63;;;6.70;99.90;;;;;;5004437;28;20393;-51
2023/01/14 03:17:09;;;;;;;16.90;2.95;;;6.60;99.90;;;;;;5004999;28;20085;-54
2023/01/14 03:19:41;;;;;;;17.10;3.05;;;6.50;99.90;;;;;;5000244;28;20054;-55
2023/01/14 03:22:08;;;;;;;11.13;2.50;;;6.40;99.90;;;;;;4999955;28;20431;-53
2023/01/14 03:24:43;;;;;;;16.25;3.70;;;6.30;99.90;;;;;;4998897;28;20052;-55
2023/01/14 03:27:23;;;;;;;15.98;3.58;;;6.20;99.90;;;;;;4999534;28;20033;-55
2023/01/14 03:30:01;;;;;;;17.63;2.95;;;6.20;99.90;;;;;;5013954;28;20496;-51
2023/01/14 03:32:34;;;;;;;13.80;3.38;;;6.10;99.90;;;;;;5007267;28;20419;-51
2023/01/14 03:35:11;;;;;;;18.88;3.58;;;6.00;99.90;;;;;;5009952;28;20053;-52
2023/01/14 03:37:41;;;;;;;16.23;2.80;;;6.00;99.90;;;;;;5007796;28;20046;-53
2023/01/14 03:40:10;;;;;;;17.83;3.30;;;6.00;99.90;;;;;;5011789;28;20042;-52
2023/01/14 03:42:41;;;;;;;20.08;3.40;;;5.90;99.90;;;;;;5005436;28;20050;-52
2023/01/14 03:45:24;;;;;;;12.85;2.67;;;5.90;99.90;;;;;;5009116;28;20054;-51
2023/01/14 03:47:50;;;;;;;21.73;3.53;;;5.90;99.90;;;;;;5012798;28;20050;-55
2023/01/14 03:50:18;;;;;;;18.08;3.33;;;5.90;99.90;;;;;;5010437;28;20037;-52
2023/01/14 03:52:47;;;;;;;18.15;2.83;;;5.90;99.90;;;;;;5008270;28;20046;-55
2023/01/14 03:55:27;;;;;;;22.20;3.38;;;5.90;99.90;;;;;;5010310;28;20368;-52
2023/01/14 03:58:00;;;;;;;20.90;3.42;;;5.90;99.90;;;;;;5000848;28;20089;-53
2023/01/14 04:00:37;;;;;;;16.02;4.00;;;5.90;99.90;;;;;;5010481;28;20049;-52
2023/01/14 04:03:06;;;;;;;14.13;2.88;;;5.90;99.90;;;;;;5006128;28;20061;-54
2023/01/14 04:05:32;;;;;;;17.85;3.35;;;5.90;99.90;;;;;;4999585;28;20042;-53
2023/01/14 04:07:59;;;;;;;23.02;3.75;;;5.90;99.90;;;;;;5001531;28;20049;-51
2023/01/14 04:10:25;;;;;;;20.33;3.97;;;5.90;99.90;;;;;;4999217;28;20125;-51
2023/01/14 04:15:35;;;;;;;20.13;3.80;;;5.80;99.90;;;;;;5001339;28;20141;-51
2023/01/14 04:18:02;;;;;;;22.85;3.90;;;5.90;99.90;;;;;;4983793;28;20852;-51
2023/01/14 04:20:27;;;;;;;19.88;3.40;;;5.90;99.90;;;;;;5000975;28;20454;-55
2023/01/14 04:22:53;;;;;;;21.45;3.90;;;5.80;99.90;;;;;;5002525;28;20085;-51
2023/01/14 04:25:19;;;;;;;26.42;4.10;;;5.80;99.90;;;;;;5002224;28;20130;-51
2023/01/14 04:27:44;;;;;;;21.02;4.15;;;5.80;99.90;;;;;;5003987;28;20092;-52
2023/01/14 04:30:10;;;;;;;24.48;4.57;;;5.80;99.90;;;;;;5000630;28;20405;-51
2023/01/14 04:32:36;;;;;;;21.38;4.30;;;5.80;99.90;;;;;;5000641;28;20046;-55
2023/01/14 04:35:03;;;;;;;19.27;3.75;;;5.80;99.90;;;;;;5001636;28;20080;-55
2023/01/14 04:37:28;;;;;;;20.08;3.75;;;5.70;99.90;;;;;;5000660;28;20093;-56
2023/01/14 04:39:54;;;;;;;24.73;4.38;;;5.80;99.90;;;;;;5002967;28;20451;-55
2023/01/14 04:42:30;;;;;;;21.45;3.90;;;5.70;99.90;;;;;;5001163;28;20042;-52
2023/01/14 04:45:01;;;;;;;22.15;4.80;;;5.70;99.90;;;;;;5002956;28;20045;-53
2023/01/14 04:47:29;;;;;;;20.25;4.32;;;5.70;99.90;;;;;;5000551;28;20480;-54
2023/01/14 04:49:55;;;;;;;22.08;3.72;;;5.60;99.90;;;;;;4999241;28;20400;-52
2023/01/14 04:52:23;;;;;;;24.02;4.28;;;5.60;99.90;;;;;;4998877;28;20030;-53
2023/01/14 04:54:52;;;;;;;24.30;4.60;;;5.60;99.90;;;;;;5000795;28;20042;-53
2023/01/14 04:57:18;;;;;;;23.70;4.18;;;5.60;99.90;;;;;;5003454;28;20042;-52
2023/01/14 04:59:44;;;;;;;21.50;3.58;;;5.60;99.90;;;;;;5002368;28;20038;-52
2023/01/14 05:02:09;;;;;;;19.70;4.40;;;5.60;99.90;;;;;;5005729;28;20061;-53
2023/01/14 05:04:35;;;;;;;23.63;4.80;;;5.60;99.90;;;;;;5001688;28;20044;-54
2023/01/14 05:07:02;;;;;;;25.80;4.43;;;5.60;99.90;;;;;;5002117;28;20092;-54
2023/01/14 05:09:29;;;;;;;23.52;4.50;;;5.60;99.90;;;;;;5001560;28;20065;-52
2023/01/14 05:11:55;;;;;;;24.23;4.47;;;5.60;99.90;;;;;;5003499;28;20510;-55
2023/01/14 05:14:20;;;;;;;22.05;5.25;;;5.60;99.90;;;;;;5002388;28;20045;-54
2023/01/14 05:16:46;;;;;;;25.30;5.57;;;5.60;99.90;;;;;;5001784;28;20413;-56
2023/01/14 05:19:12;;;;;;;20.02;4.13;;;5.60;99.90;;;;;;5002401;28;20115;-55
2023/01/14 05:21:37;;;;;;;27.85;5.38;;;5.50;99.90;;;;;;5001867;28;20626;-54
2023/01/14 05:24:03;;;;;;;26.30;5.13;;;5.60;99.90;;;;;;5000771;28;20060;-51
2023/01/14 05:26:29;;;;;;;31.40;5.78;;;5.60;99.90;;;;;;5000656;28;20120;-52
2023/01/14 05:28:54;;;;;;;31.20;5.95;;;5.60;99.90;;;;;;5000790;28;20361;-51
2023/01/14 05:31:20;;;;;;;34.05;5.20;;;5.60;99.90;;;;;;5001674;28;20037;-53
2023/01/14 05:33:46;;;;;;;27.33;5.03;;;5.60;99.90;;;;;;5008622;28;20096;-51
2023/01/14 05:36:11;;;;;;;27.20;5.38;;;5.60;99.90;;;;;;5008794;28;20120;-55
2023/01/14 05:38:37;;;;;;;28.38;5.15;;;5.50;99.90;;;;;;5007219;28;21699;-53
2023/01/14 05:41:03;;;;;;;26.25;5.80;;;5.60;99.90;;;;;;5007267;28;20041;-51
2023/01/14 05:46:15;;;;;;;20.02;4.60;;;5.50;99.90;;;;;;5004094;28;20050;-52
2023/01/14 05:48:41;;;;;;;37.58;6.43;;;5.50;99.90;;;;;;5002171;28;20100;-53
2023/01/14 05:51:07;;;;;;;26.58;5.28;;;5.50;99.90;;;;;;5004777;28;20042;-53
2023/01/14 05:53:33;;;;;;;32.85;6.10;;;5.50;99.90;;;;;;5013139;28;20353;-55
2023/01/14 05:55:59;;;;;;;27.25;6.20;;;5.50;99.90;;;;;;5012678;28;20091;-55
2023/01/14 05:58:26;;;;;;;29.58;6.28;;;5.50;99.90;;;;;;5013647;28;20044;-53
2023/01/14 06:06:25;;;;;;;32.88;5.80;;;5.50;99.90;;;;;;5000703;28;20054;-51
2023/01/14 06:09:00;;;;;;;37.92;6.28;;;5.50;99.90;;;;;;5000426;28;20120;-54
2023/01/14 06:11:27;;;;;;;28.50;5.30;;;5.50;99.90;;;;;;5003479;28;20046;-53
2023/01/14 06:13:57;;;;;;;25.42;5.35;;;5.50;99.90;;;;;;5003072;28;20038;-54
2023/01/14 06:16:26;;;;;;;26.95;5.00;;;5.50;99.90;;;;;;5001799;28;20057;-53
2023/01/14 06:18:52;;;;;;;28.92;5.10;;;5.50;99.90;;;;;;4999640;28;20100;-52
2023/01/14 06:21:21;;;;;;;26.55;5.85;;;5.50;99.90;;;;;;4999607;28;20927;-54
2023/01/14 06:23:47;;;;;;;29.20;5.07;;;5.60;99.90;;;;;;5001080;28;20050;-53
2023/01/14 06:26:16;;;;;;;31.00;5.47;;;5.60;99.90;;;;;;4999632;28;20558;-52
2023/01/14 06:28:42;;;;;;;29.95;5.47;;;5.50;99.90;;;;;;4999301;28;22042;-54
2023/01/14 06:31:13;;;;;;;32.10;6.20;;;5.60;99.90;;;;;;4998536;28;20046;-53
2023/01/14 06:33:39;;;;;;;30.13;5.47;;;5.60;99.90;;;;;;5000560;28;20038;-51
2023/01/14 06:36:09;;;;;;;32.80;6.07;;;5.60;99.90;;;;;;4999222;28;20048;-52
2023/01/14 06:38:36;;;;;;;29.35;5.57;;;5.60;99.90;;;;;;5000577;28;20121;-53
2023/01/14 06:41:04;;;;;;;30.88;6.68;;;5.60;99.90;;;;;;4998558;28;20045;-53
2023/01/14 06:43:29;;;;;;;34.22;6.00;;;5.60;99.90;;;;;;5005221;28;20046;-56
2023/01/14 06:45:56;;;;;;;32.97;6.45;;;5.60;99.90;;;;;;5000867;28;20056;-52
2023/01/14 06:48:23;;;;;;;34.00;5.55;;;5.60;99.90;;;;;;5001396;28;20121;-56
2023/01/14 06:50:49;;;;;;;31.13;6.15;;;5.60;99.90;;;;;;5000733;28;20054;-54
2023/01/14 06:53:15;;;;;;;31.58;6.93;;;5.70;99.90;;;;;;5002409;28;20041;-51
2023/01/14 06:55:41;;;;;;;37.20;6.38;;;5.70;99.90;;;;;;4999258;28;20046;-52
2023/01/14 06:58:06;;;;;;;36.88;5.90;;;5.70;99.90;;;;;;4998367;28;20038;-53
2023/01/14 07:00:32;;;;;;;29.45;5.95;;;5.80;99.90;;;;;;5002459;28;20399;-53
2023/01/14 07:02:58;;;;;;;31.80;6.43;;;5.80;99.90;;;;;;5000680;28;20116;-51
2023/01/14 07:05:24;;;;;;;30.45;5.75;;;5.80;99.90;;;;;;5002218;28;20046;-54
2023/01/14 07:07:49;;;;;;;31.15;5.82;;;5.80;99.90;;;;;;5004095;28;20034;-54
2023/01/14 07:10:16;;;;;;;30.13;5.35;;;5.90;99.90;;;;;;5002551;28;20400;-53
2023/01/14 07:12:50;;;;;;;29.75;5.63;;;5.90;99.90;;;;;;4998467;28;20039;-51
2023/01/14 07:15:19;;;;;;;33.17;6.38;;;5.90;99.90;;;;;;4998071;28;20061;-52
2023/01/14 07:17:46;;;;;;;28.67;5.47;;;5.90;99.90;;;;;;4998942;28;20145;-52
2023/01/14 07:20:12;;;;;;;31.02;5.47;;;5.90;99.90;;;;;;4997997;28;20038;-52
2023/01/14 07:22:38;;;;;;;32.08;5.53;;;5.90;99.90;;;;;;5000108;28;20042;-55
2023/01/14 07:25:05;;;;;;;34.10;5.57;;;5.90;99.90;;;;;;4998151;28;20095;-53
2023/01/14 07:27:31;;;;;;;38.05;6.32;;;5.90;99.90;;;;;;4999304;28;20427;-51
2023/01/14 07:29:57;;;;;;;28.45;5.15;;;6.00;99.90;;;;;;4999583;28;20045;-51
2023/01/14 07:32:23;;;;;;;32.25;5.93;;;6.10;99.90;;;;;;5005349;28;20053;-51
2023/01/14 07:34:50;;;;;;;32.13;5.78;;;6.10;99.90;;;;;;5003278;28;20404;-55
2023/01/14 07:37:15;;;;;;;25.75;4.95;;;6.10;99.90;;;;;;5008973;28;20065;-51
2023/01/14 07:39:41;;;;;;;30.58;5.18;;;6.10;99.90;;;;;;5011527;28;20074;-56
2023/01/14 07:42:07;;;;;;;25.35;5.13;;;6.10;99.90;;;;;;5009415;28;20046;-55
2023/01/14 07:44:32;;;;;;;27.90;4.70;;;6.10;99.90;;;;;;5009933;28;20479;-53
2023/01/14 07:46:58;;;;;;;28.63;5.57;;;6.10;99.90;;;;;;5001434;28;20077;-53
2023/01/14 07:49:24;;;;;;;26.48;5.15;;;6.10;99.90;;;;;;5011139;28;20448;-52
2023/01/14 07:51:50;;;;;;;27.90;4.85;;;6.20;99.90;;;;;;5008501;28;20473;-54
2023/01/14 07:54:17;;;;;;;24.67;4.82;;;6.10;99.90;;;;;;5012423;28;20129;-53
2023/01/14 07:56:42;;;;;;;23.17;4.80;;;6.20;99.90;;;;;;5010656;28;20038;-54
2023/01/14 07:59:08;;;;;;;30.20;4.85;;;6.20;99.90;;;;;;5007278;28;20475;-54
2023/01/14 08:01:34;;;;;;;19.95;4.72;;;6.20;99.90;;;;;;4981806;28;20042;-51
2023/01/14 08:03:59;;;;;;;30.92;5.60;;;6.30;99.90;;;;;;5003075;28;20053;-51
2023/01/14 08:06:25;;;;;;;25.10;5.00;;;6.30;99.90;;;;;;5005308;28;20511;-51
2023/01/14 08:08:51;;;;;;;31.10;4.20;;;6.30;99.90;;;;;;5003870;28;20488;-55
2023/01/14 08:11:16;;;;;;;31.05;4.80;;;6.30;99.90;;;;;;4999500;28;20396;-56
2023/01/14 08:13:42;;;;;;;27.05;4.93;;;6.30;99.90;;;;;;5001240;28;20034;-53
2023/01/14 08:16:09;;;;;;;25.90;4.90;;;6.30;99.90;;;;;;4999517;28;20041;-52
2023/01/14 08:18:35;;;;;;;25.65;4.47;;;6.30;99.90;;;;;;5010782;28;20054;-54
2023/01/14 08:21:06;;;;;;;27.83;5.10;;;6.30;99.90;;;;;;5011976;28;20076;-56
2023/01/14 08:23:33;;;;;;;23.88;3.67;;;6.40;99.90;;;;;;5008878;28;20462;-56
2023/01/14 08:26:11;;;;;;;27.35;4.25;;;6.30;99.90;;;;;;5010225;28;20092;-55
2023/01/14 08:28:38;;;;;;;26.80;4.90;;;6.30;99.90;;;;;;4999903;28;20124;-53
2023/01/14 08:31:12;;;;;;;29.40;5.03;;;6.40;99.90;;;;;;5002109;28;20061;-53
2023/01/14 08:33:38;;;;;;;29.00;4.43;;;6.30;99.90;;;;;;5002216;28;20493;-55
2023/01/14 08:36:10;;;;;;;31.63;4.60;;;6.40;99.90;;;;;;4999984;28;20514;-53
2023/01/14 08:38:38;;;;;;;20.10;4.30;;;6.30;99.90;;;;;;5007389;28;20117;-52
2023/01/14 08:41:14;;;;;;;32.85;4.38;;;6.30;99.90;;;;;;5000272;28;20042;-57
2023/01/14 08:43:40;;;;;;;28.50;4.45;;;6.40;99.90;;;;;;4997697;28;20046;-53
2023/01/14 08:46:08;;;;;;;21.42;4.63;;;6.40;99.90;;;;;;5009074;28;20056;-53
2023/01/14 08:48:35;;;;;;;22.90;5.25;;;6.40;99.90;;;;;;5014469;28;20411;-56
2023/01/14 08:51:06;;;;;;;21.55;3.67;;;6.40;99.90;;;;;;5009825;28;20046;-54
2023/01/14 08:53:35;;;;;;;21.88;4.15;;;6.40;99.90;;;;;;5003312;28;20420;-52
2023/01/14 08:56:02;;;;;;;20.33;4.45;;;6.40;99.90;;;;;;5011080;28;20046;-55
2023/01/14 08:58:28;;;;;;;30.13;4.90;;;6.40;99.90;;;;;;5009456;28;20435;-57
2023/01/14 09:00:58;;;;;;;18.30;3.72;;;6.40;99.90;;;;;;5006780;28;20089;-55
2023/01/14 09:03:25;;;;;;;19.95;3.90;;;6.40;99.90;;;;;;5000855;28;20496;-55
2023/01/14 09:05:58;;;;;;;24.70;3.80;;;6.40;99.90;;;;;;5003157;28;20057;-54
2023/01/14 09:19:30;;;;;;;12.88;2.78;;;6.50;99.90;;;;;;5008109;28;20080;-57
2023/01/14 09:21:56;;;;;;;20.83;3.83;;;6.40;99.90;;;;;;5009904;28;20129;-55
2023/01/14 09:24:22;;;;;;;18.00;3.42;;;6.50;99.90;;;;;;5009987;28;20702;-55
2023/01/14 09:26:48;;;;;;;17.48;3.40;;;6.50;99.90;;;;;;5007913;28;20046;-55
2023/01/14 09:29:13;;;;;;;20.42;4.10;;;6.50;99.90;;;;;;5004368;28;20822;-55
2023/01/14 09:31:39;;;;;;;14.68;3.28;;;6.50;99.90;;;;;;5007404;28;20481;-56
2023/01/14 09:34:04;;;;;;;16.25;3.90;;;6.60;99.90;;;;;;5003175;28;20042;-55
2023/01/14 09:36:30;;;;;;;18.85;3.60;;;6.60;99.90;;;;;;5005608;28;20077;-56
2023/01/14 09:38:56;;;;;;;11.50;2.83;;;6.60;99.90;;;;;;4998779;28;20120;-56
2023/01/14 09:41:23;;;;;;;18.13;4.10;;;6.60;99.90;;;;;;5007724;28;20066;-58
2023/01/14 09:43:49;;;;;;;15.60;3.80;;;6.60;99.90;;;;;;5008131;28;20038;-58
2023/01/14 09:46:15;;;;;;;14.82;3.63;;;6.60;99.90;;;;;;5012511;28;20123;-57
2023/01/14 09:48:40;;;;;;;17.20;3.72;;;6.60;99.90;;;;;;5005812;28;20042;-57
2023/01/14 09:51:48;;;;;;;13.63;3.45;;;6.70;99.90;;;;;;5010402;28;20100;-56
2023/01/14 09:54:19;;;;;;;14.55;3.72;;;6.70;99.90;;;;;;4931666;29;21001;-57
2023/01/14 09:56:51;;;;;;;12.60;3.65;;;6.70;99.90;;;;;;4933209;29;20079;-58
2023/01/14 09:59:42;;;;;;;9.07;3.50;;;6.70;99.90;;;;;;4928746;29;20103;-55
2023/01/14 10:02:51;;;;;;;12.05;3.30;;;6.70;99.90;;;;;;4929955;29;20046;-56
2023/01/14 10:05:29;;;;;;;13.18;3.75;;;6.70;99.90;;;;;;4909491;29;20104;-57
2023/01/14 10:08:04;;;;;;;17.08;3.80;;;6.70;99.90;;;;;;4908787;29;20060;-57
2023/01/14 10:10:35;;;;;;;12.60;4.15;;;6.80;99.90;;;;;;4889770;29;20541;-57
2023/01/14 10:13:06;;;;;;;11.02;3.03;;;6.80;99.90;;;;;;4905936;29;20059;-57
2023/01/14 10:15:36;;;;;;;12.13;3.70;;;6.80;99.90;;;;;;4906137;29;20040;-57
2023/01/14 10:18:31;;;;;;;18.25;3.83;;;6.80;99.90;;;;;;4910688;29;20055;-54
2023/01/14 10:21:02;;;;;;;14.95;4.18;;;6.80;99.90;;;;;;4890720;29;20052;-58
2023/01/14 10:23:31;;;;;;;11.60;3.85;;;6.80;99.90;;;;;;4907141;29;20059;-57
2023/01/14 10:25:57;;;;;;;8.77;4.18;;;6.90;99.90;;;;;;4903423;29;20139;-57
2023/01/14 10:28:28;;;;;;;8.45;3.85;;;6.90;99.90;;;;;;4910573;29;20138;-56
2023/01/14 10:30:57;;;;;;;8.52;3.85;;;6.90;99.90;;;;;;4935063;28;20390;-55
2023/01/14 10:33:23;;;;;;;9.68;3.35;;;7.00;99.90;;;;;;4982343;28;20054;-58
2023/01/14 10:36:02;;;;;;;10.20;3.67;;;7.00;99.90;;;;;;4980003;28;20049;-58
2023/01/14 10:38:28;;;;;;;10.63;3.40;;;7.00;99.90;;;;;;4987346;28;20128;-57
2023/01/14 10:41:00;;;;;;;9.57;3.60;;;7.00;99.90;;;;;;5003544;28;20077;-54
2023/01/14 10:43:33;;;;;;;11.05;3.92;;;7.10;99.90;;;;;;5006969;28;20939;-56
2023/01/14 10:45:58;;;;;;;9.20;3.60;;;7.10;99.90;;;;;;5006068;28;21035;-56
2023/01/14 10:48:25;;;;;;;8.13;3.50;;;7.20;99.90;;;;;;5001160;28;20568;-55
2023/01/14 10:50:52;;;;;;;10.38;3.60;;;7.20;99.90;;;;;;4998878;28;20043;-53
2023/01/14 10:53:26;;;;;;;7.97;2.92;;;7.20;99.90;;;;;;5006055;28;20041;-57
2023/01/14 10:55:58;;;;;;;6.72;2.65;;;7.30;99.90;;;;;;5004703;28;20042;-55
2023/01/14 10:58:31;;;;;;;9.82;3.08;;;7.30;99.90;;;;;;5001364;28;20136;-56
2023/01/14 11:01:03;;;;;;;8.70;2.55;;;7.40;99.90;;;;;;5000583;28;20042;-54
2023/01/14 11:03:31;;;;;;;7.05;2.35;;;7.40;99.90;;;;;;5008743;28;20046;-56
2023/01/14 11:06:05;;;;;;;9.63;2.47;;;7.40;99.90;;;;;;5007458;28;20062;-56
2023/01/14 11:08:41;;;;;;;6.45;2.47;;;7.50;99.90;;;;;;5008482;28;20113;-55
2023/01/14 11:11:11;;;;;;;6.78;3.00;;;7.50;99.90;;;;;;5003566;28;20099;-55
2023/01/14 11:13:44;;;;;;;7.55;3.92;;;7.50;99.90;;;;;;5010477;28;20087;-55
2023/01/14 11:16:38;;;;;;;6.82;3.30;;;7.50;99.90;;;;;;5006272;28;20651;-53
2023/01/14 11:19:19;;;;;;;7.63;2.97;;;7.50;99.90;;;;;;5011198;28;20121;-55
2023/01/14 11:21:48;;;;;;;5.97;2.20;;;7.60;99.90;;;;;;5010633;28;20108;-56
2023/01/14 11:24:23;;;;;;;5.07;1.98;;;7.50;99.90;;;;;;5009468;28;20192;-53
2023/01/14 11:26:49;;;;;;;7.35;2.40;;;7.50;99.90;;;;;;5007106;28;20057;-51
2023/01/14 11:29:24;;;;;;;5.43;2.30;;;7.50;99.90;;;;;;5009419;28;20052;-55
2023/01/14 11:31:56;;;;;;;6.13;2.10;;;7.50;99.90;;;;;;5005422;28;20042;-53
2023/01/14 11:34:32;;;;;;;6.35;2.25;;;7.50;99.90;;;;;;5007883;28;20038;-56
2023/01/14 11:37:23;;;;;;;7.88;2.30;;;7.60;99.90;;;;;;5006239;28;20045;-55
2023/01/14 11:39:59;;;;;;;5.90;2.13;;;7.60;99.90;;;;;;4997640;28;20096;-54
2023/01/14 11:42:34;;;;;;;6.68;2.20;;;7.60;99.90;;;;;;5010941;28;20135;-54
2023/01/14 11:45:15;;;;;;;7.15;2.53;;;7.60;99.90;;;;;;5011661;28;20038;-56
2023/01/14 11:47:50;;;;;;;5.53;1.90;;;7.70;99.90;;;;;;5011776;28;20489;-55
2023/01/14 11:50:20;;;;;;;4.22;1.98;;;7.70;99.90;;;;;;5010395;28;20042;-55
2023/01/14 11:53:02;;;;;;;5.28;2.33;;;7.70;99.90;;;;;;5007374;28;20416;-53
2023/01/14 11:55:37;;;;;;;6.07;2.20;;;7.70;99.90;;;;;;5009751;28;20069;-53
2023/01/14 11:58:19;;;;;;;5.43;2.33;;;7.70;99.90;;;;;;5009232;28;20048;-53
2023/01/14 12:00:56;;;;;;;6.97;1.90;;;7.70;99.90;;;;;;5008427;28;20121;-53
2023/01/14 12:03:37;;;;;;;5.68;1.98;;;7.70;99.90;;;;;;5009483;28;20053;-57
2023/01/14 12:06:16;;;;;;;5.07;2.00;;;7.80;99.90;;;;;;5005010;28;20049;-56
2023/01/14 12:08:46;;;;;;;6.00;1.98;;;7.80;99.90;;;;;;5008605;28;20046;-56
2023/01/14 12:11:24;;;;;;;5.97;1.98;;;7.80;99.90;;;;;;5005785;28;20400;-53
2023/01/14 12:16:56;;;;;;;4.28;2.03;;;7.90;99.90;;;;;;5006650;28;19921;-52
2023/01/14 12:19:46;;;;;;;4.75;2.00;;;7.90;99.90;;;;;;5006033;28;20489;-52
2023/01/14 12:22:25;;;;;;;5.00;1.90;;;7.90;99.90;;;;;;5003400;28;20349;-55
2023/01/14 12:25:11;;;;;;;10.15;2.50;;;8.00;99.90;;;;;;5008244;28;20088;-56
2023/01/14 12:27:54;;;;;;;3.80;2.28;;;8.00;99.90;;;;;;5006854;28;20041;-53
2023/01/14 12:30:40;;;;;;;6.35;2.00;;;8.00;99.90;;;;;;5008638;28;20041;-56
2023/01/14 12:33:08;;;;;;;4.82;2.22;;;8.10;99.90;;;;;;5005511;28;20072;-55
2023/01/14 12:35:47;;;;;;;4.05;2.05;;;8.10;99.90;;;;;;5004140;28;20046;-55
2023/01/14 12:47:35;;;;;;;3.08;1.70;;;8.20;99.90;;;;;;5007407;28;20058;-53
2023/01/14 12:50:08;;;;;;;5.75;1.98;;;8.20;99.90;;;;;;5002312;28;20045;-52
2023/01/14 12:52:36;;;;;;;5.70;1.67;;;8.20;99.90;;;;;;5005197;28;20480;-55
2023/01/14 12:55:03;;;;;;;4.38;1.50;;;8.30;99.90;;;;;;5006331;28;20100;-55
2023/01/14 12:57:30;;;;;;;4.15;1.70;;;8.20;99.90;;;;;;4995739;28;20050;-53
2023/01/14 13:00:05;;;;;;;3.42;1.73;;;8.20;99.90;;;;;;5006152;28;20088;-54
2023/01/14 13:02:32;;;;;;;4.78;1.50;;;8.30;99.90;;;;;;5005790;28;20042;-55
2023/01/14 13:05:11;;;;;;;3.72;1.58;;;8.30;99.90;;;;;;5008260;28;20559;-51
2023/01/14 13:07:46;;;;;;;2.45;1.25;;;8.30;99.90;;;;;;5012176;28;20061;-54
2023/01/14 13:10:30;;;;;;;2.75;1.08;;;8.40;99.90;;;;;;4989915;28;20046;-54
2023/01/14 13:12:56;;;;;;;3.97;1.65;;;8.40;99.90;;;;;;5010704;28;20050;-54
2023/01/14 13:15:24;;;;;;;4.25;1.20;;;8.40;99.90;;;;;;5007407;28;20045;-55
2023/01/14 13:17:57;;;;;;;4.53;1.38;;;8.40;99.90;;;;;;5008657;28;20065;-52
2023/01/14 13:20:29;;;;;;;6.97;1.30;;;8.50;99.90;;;;;;5006157;28;20451;-52
2023/01/14 13:22:55;;;;;;;2.70;1.20;;;8.50;99.90;;;;;;5004522;28;20049;-54
2023/01/14 13:25:42;;;;;;;6.20;1.30;;;8.60;99.90;;;;;;5010562;28;20688;-56
2023/01/14 13:28:10;;;;;;;2.60;1.10;;;8.60;99.90;;;;;;5009863;28;20041;-54
2023/01/14 13:30:42;;;;;;;4.10;1.48;;;;;;;;;;5011030;28;20408;-53
2023/01/14 13:33:20;;;;;;;2.13;0.90;;;;;;;;;;5010069;28;20053;-56
2023/01/14 13:36:05;;;;;;;3.85;1.20;;;;;;;;;;4996763;28;20050;-55
2023/01/14 13:38:32;;;;;;;1.90;0.77;;;;;;;;;;5007541;28;20492;-55
2023/01/14 13:41:06;;;;;;;1.58;0.93;;;;;;;;;;5013903;28;20045;-55
2023/01/14 13:43:33;;;;;;;2.25;0.88;;;;;;;;;;5014701;28;20065;-53
2023/01/14 13:46:01;;;;;;;1.40;0.77;;;;;;;;;;5016537;28;20045;-55
2023/01/14 13:48:34;;;;;;;1.52;0.70;;;;;;;;;;5015544;28;20117;-57
2023/01/14 13:51:18;;;;;;;1.65;0.70;;;8.80;99.90;;;;;;5011001;28;20061;-54